sensor_id;sensor_type;location;lat;lon;timestamp;pressure;altitude;pressure_sealevel;temperature;humidity
4410;BME280;2218;51.408;7.208;2023-04-26T00:01:34;99985.31;;;19.01;33.75
4410;BME280;2218;51.408;7.208;2023-04-26T00:04:01;99976.56;;;19.01;33.85
4410;BME280;2218;51.408;7.208;2023-04-26T00:06:28;99983.63;;;19.00;33.87
4410;BME280;2218;51.408;7.208;2023-04-26T00:08:57;99982.78;;;19.00;33.68
4410;BME280;2218;51.408;7.208;2023-04-26T00:11:24;99981.91;;;18.99;33.67
4410;BME280;2218;51.408;7.208;2023-04-26T00:13:50;99984.53;;;18.99;33.83
4410;BME280;2218;51.408;7.208;2023-04-26T00:16:17;99984.63;;;18.98;33.79
4410;BME280;2218;51.408;7.208;2023-04-26T00:18:45;99982.00;;;18.98;33.65
4410;BME280;2218;51.408;7.208;2023-04-26T00:21:14;99982.13;;;18.96;33.90
4410;BME280;2218;51.408;7.208;2023-04-26T00:23:40;99982.13;;;18.96;33.74
4410;BME280;2218;51.408;7.208;2023-04-26T00:26:09;99976.84;;;18.96;33.90
4410;BME280;2218;51.408;7.208;2023-04-26T00:28:36;99976.84;;;18.96;33.63
4410;BME280;2218;51.408;7.208;2023-04-26T00:31:03;99976.97;;;18.95;33.77
4410;BME280;2218;51.408;7.208;2023-04-26T00:33:30;99972.59;;;18.94;33.64
4410;BME280;2218;51.408;7.208;2023-04-26T00:35:57;99974.31;;;18.95;33.87
4410;BME280;2218;51.408;7.208;2023-04-26T00:38:24;99973.44;;;18.94;33.86
4410;BME280;2218;51.408;7.208;2023-04-26T00:40:51;99973.44;;;18.94;34.01
4410;BME280;2218;51.408;7.208;2023-04-26T00:43:19;99970.91;;;18.93;33.73
4410;BME280;2218;51.408;7.208;2023-04-26T00:45:46;99970.91;;;18.93;33.73
4410;BME280;2218;51.408;7.208;2023-04-26T00:48:15;99968.41;;;18.91;33.86
4410;BME280;2218;51.408;7.208;2023-04-26T00:50:42;99969.25;;;18.92;33.86
4410;BME280;2218;51.408;7.208;2023-04-26T00:53:11;99969.25;;;18.92;33.72
4410;BME280;2218;51.408;7.208;2023-04-26T00:55:40;99966.59;;;18.92;33.86
4410;BME280;2218;51.408;7.208;2023-04-26T00:58:07;99958.81;;;18.90;34.07
4410;BME280;2218;51.408;7.208;2023-04-26T01:00:35;99956.19;;;18.90;34.08
4410;BME280;2218;51.408;7.208;2023-04-26T01:03:03;99963.22;;;18.90;33.74
4410;BME280;2218;51.408;7.208;2023-04-26T01:05:29;99964.16;;;18.89;34.11
4410;BME280;2218;51.408;7.208;2023-04-26T01:07:57;99964.16;;;18.89;34.06
4410;BME280;2218;51.408;7.208;2023-04-26T01:10:25;99964.16;;;18.89;34.15
4410;BME280;2218;51.408;7.208;2023-04-26T01:12:52;99959.84;;;18.88;34.06
4410;BME280;2218;51.408;7.208;2023-04-26T01:15:20;99956.34;;;18.87;34.13
4410;BME280;2218;51.408;7.208;2023-04-26T01:17:50;99964.25;;;18.87;34.23
4410;BME280;2218;51.408;7.208;2023-04-26T01:20:17;99963.41;;;18.87;33.96
4410;BME280;2218;51.408;7.208;2023-04-26T01:22:46;99963.41;;;18.87;34.07
4410;BME280;2218;51.408;7.208;2023-04-26T01:25:15;99960.78;;;18.87;33.90
4410;BME280;2218;51.408;7.208;2023-04-26T01:27:42;99969.63;;;18.85;34.16
4410;BME280;2218;51.408;7.208;2023-04-26T01:30:11;99974.91;;;18.85;34.10
4410;BME280;2218;51.408;7.208;2023-04-26T01:32:38;99968.78;;;18.85;34.00
4410;BME280;2218;51.408;7.208;2023-04-26T01:35:07;99975.81;;;18.84;33.85
4410;BME280;2218;51.408;7.208;2023-04-26T01:37:34;99980.25;;;18.84;34.25
4410;BME280;2218;51.408;7.208;2023-04-26T01:40:03;99975.09;;;18.82;33.79
4410;BME280;2218;51.408;7.208;2023-04-26T01:42:31;99976.78;;;18.83;33.85
4410;BME280;2218;51.408;7.208;2023-04-26T01:44:58;99977.72;;;18.82;34.03
4410;BME280;2218;51.408;7.208;2023-04-26T01:47:25;99969.81;;;18.82;33.99
4410;BME280;2218;51.408;7.208;2023-04-26T01:49:52;99974.13;;;18.83;34.15
4410;BME280;2218;51.408;7.208;2023-04-26T01:52:21;99965.28;;;18.84;34.17
4410;BME280;2218;51.408;7.208;2023-04-26T01:54:48;99961.72;;;18.85;34.08
4410;BME280;2218;51.408;7.208;2023-04-26T01:57:17;99964.38;;;18.85;33.95
4410;BME280;2218;51.408;7.208;2023-04-26T01:59:44;99960.78;;;18.87;33.80
4410;BME280;2218;51.408;7.208;2023-04-26T02:02:11;99968.59;;;18.88;33.83
4410;BME280;2218;51.408;7.208;2023-04-26T02:04:38;99972.81;;;18.91;33.87
4410;BME280;2218;51.408;7.208;2023-04-26T02:07:04;99968.41;;;18.91;33.95
4410;BME280;2218;51.408;7.208;2023-04-26T02:09:31;99978.81;;;18.93;33.98
4410;BME280;2218;51.408;7.208;2023-04-26T02:11:58;99970.91;;;18.93;33.86
4410;BME280;2218;51.408;7.208;2023-04-26T02:14:27;99972.59;;;18.94;33.80
4410;BME280;2218;51.408;7.208;2023-04-26T02:16:53;99975.25;;;18.94;33.97
4410;BME280;2218;51.408;7.208;2023-04-26T02:19:21;99972.59;;;18.94;34.14
4410;BME280;2218;51.408;7.208;2023-04-26T02:21:53;99977.88;;;18.94;33.76
4410;BME280;2218;51.408;7.208;2023-04-26T02:24:22;99972.59;;;18.94;33.93
4410;BME280;2218;51.408;7.208;2023-04-26T02:26:49;99969.13;;;18.93;33.69
4410;BME280;2218;51.408;7.208;2023-04-26T02:29:17;99969.13;;;18.93;33.87
4410;BME280;2218;51.408;7.208;2023-04-26T02:31:46;99971.75;;;18.93;34.12
4410;BME280;2218;51.408;7.208;2023-04-26T02:34:13;99972.59;;;18.94;33.78
4410;BME280;2218;51.408;7.208;2023-04-26T02:36:41;99970.91;;;18.93;33.90
4410;BME280;2218;51.408;7.208;2023-04-26T02:39:08;99974.41;;;18.93;33.73
4410;BME280;2218;51.408;7.208;2023-04-26T02:41:35;99972.59;;;18.94;33.48
4410;BME280;2218;51.408;7.208;2023-04-26T02:44:02;99971.75;;;18.93;33.92
4410;BME280;2218;51.408;7.208;2023-04-26T02:46:29;99970.91;;;18.93;33.76
4410;BME280;2218;51.408;7.208;2023-04-26T02:48:58;99967.34;;;18.94;33.84
4410;BME280;2218;51.408;7.208;2023-04-26T02:51:25;99956.81;;;18.94;33.86
4410;BME280;2218;51.408;7.208;2023-04-26T02:53:52;99969.06;;;18.95;34.10
4410;BME280;2218;51.408;7.208;2023-04-26T02:56:19;99963.78;;;18.95;33.90
4410;BME280;2218;51.408;7.208;2023-04-26T02:58:46;99968.19;;;18.94;33.67
4410;BME280;2218;51.408;7.208;2023-04-26T03:01:13;99962.91;;;18.94;33.79
4410;BME280;2218;51.408;7.208;2023-04-26T03:03:41;99964.72;;;18.94;33.76
4410;BME280;2218;51.408;7.208;2023-04-26T03:06:09;99969.97;;;18.94;33.94
4410;BME280;2218;51.408;7.208;2023-04-26T03:08:36;99968.19;;;18.94;33.89
4410;BME280;2218;51.408;7.208;2023-04-26T03:11:04;99966.41;;;18.95;33.80
4410;BME280;2218;51.408;7.208;2023-04-26T03:13:31;99952.38;;;18.94;34.07
4410;BME280;2218;51.408;7.208;2023-04-26T03:15:58;99962.91;;;18.94;34.01
4410;BME280;2218;51.408;7.208;2023-04-26T03:18:25;99956.81;;;18.94;33.83
4410;BME280;2218;51.408;7.208;2023-04-26T03:20:53;99956.81;;;18.94;34.06
4410;BME280;2218;51.408;7.208;2023-04-26T03:23:21;99959.44;;;18.94;33.85
4410;BME280;2218;51.408;7.208;2023-04-26T03:25:49;99954.16;;;18.94;33.86
4410;BME280;2218;51.408;7.208;2023-04-26T03:28:17;99957.66;;;18.94;34.03
4410;BME280;2218;51.408;7.208;2023-04-26T03:30:44;99954.16;;;18.94;34.05
4410;BME280;2218;51.408;7.208;2023-04-26T03:33:11;99955.13;;;18.93;34.03
4410;BME280;2218;51.408;7.208;2023-04-26T03:35:39;99956.81;;;18.94;33.83
4410;BME280;2218;51.408;7.208;2023-04-26T03:38:06;99956.81;;;18.94;33.93
4410;BME280;2218;51.408;7.208;2023-04-26T03:40:34;99947.22;;;18.93;33.77
4410;BME280;2218;51.408;7.208;2023-04-26T03:43:01;99955.13;;;18.93;33.75
4410;BME280;2218;51.408;7.208;2023-04-26T03:45:28;99944.59;;;18.93;33.84
4410;BME280;2218;51.408;7.208;2023-04-26T03:47:55;99950.69;;;18.93;33.76
4410;BME280;2218;51.408;7.208;2023-04-26T03:50:22;99944.59;;;18.93;33.39
4410;BME280;2218;51.408;7.208;2023-04-26T03:52:50;99948.91;;;18.94;33.59
4410;BME280;2218;51.408;7.208;2023-04-26T03:55:17;99945.44;;;18.93;33.99
4410;BME280;2218;51.408;7.208;2023-04-26T03:57:45;99950.69;;;18.93;33.71
4410;BME280;2218;51.408;7.208;2023-04-26T04:00:13;99947.22;;;18.93;33.85
4410;BME280;2218;51.408;7.208;2023-04-26T04:02:43;99957.75;;;18.93;33.68
4410;BME280;2218;51.408;7.208;2023-04-26T04:05:17;99955.97;;;18.93;33.89
4410;BME280;2218;51.408;7.208;2023-04-26T04:07:44;99956.81;;;18.94;33.61
4410;BME280;2218;51.408;7.208;2023-04-26T04:10:12;99955.97;;;18.93;33.65
4410;BME280;2218;51.408;7.208;2023-04-26T04:12:40;99958.53;;;18.95;33.39
4410;BME280;2218;51.408;7.208;2023-04-26T04:15:10;99953.25;;;18.95;33.36
4410;BME280;2218;51.408;7.208;2023-04-26T04:17:41;99961.16;;;18.95;33.63
4410;BME280;2218;51.408;7.208;2023-04-26T04:20:09;99954.94;;;18.96;33.43
4410;BME280;2218;51.408;7.208;2023-04-26T04:22:37;99962.72;;;18.97;33.59
4410;BME280;2218;51.408;7.208;2023-04-26T04:25:05;99963.56;;;18.98;33.26
4410;BME280;2218;51.408;7.208;2023-04-26T04:27:32;99964.34;;;19.00;33.42
4410;BME280;2218;51.408;7.208;2023-04-26T04:29:59;99962.53;;;19.00;33.08
4410;BME280;2218;51.408;7.208;2023-04-26T04:32:30;99965.06;;;19.02;33.32
4410;BME280;2218;51.408;7.208;2023-04-26T04:34:58;99972.03;;;19.03;33.34
4410;BME280;2218;51.408;7.208;2023-04-26T04:37:26;99970.22;;;19.03;33.22
4410;BME280;2218;51.408;7.208;2023-04-26T04:39:53;99968.44;;;19.04;33.13
4410;BME280;2218;51.408;7.208;2023-04-26T04:42:21;99978.06;;;19.05;33.37
4410;BME280;2218;51.408;7.208;2023-04-26T04:44:48;99979.75;;;19.06;33.15
4410;BME280;2218;51.408;7.208;2023-04-26T04:47:16;99980.59;;;19.06;33.15
4410;BME280;2218;51.408;7.208;2023-04-26T04:49:44;99977.94;;;19.06;33.38
4410;BME280;2218;51.408;7.208;2023-04-26T04:52:12;99980.59;;;19.06;33.03
4410;BME280;2218;51.408;7.208;2023-04-26T04:54:39;99979.63;;;19.07;33.31
4410;BME280;2218;51.408;7.208;2023-04-26T04:57:07;99980.47;;;19.08;33.30
4410;BME280;2218;51.408;7.208;2023-04-26T04:59:34;99981.31;;;19.08;33.22
4410;BME280;2218;51.408;7.208;2023-04-26T05:02:02;99975.22;;;19.08;33.36
4410;BME280;2218;51.408;7.208;2023-04-26T05:04:30;99985.75;;;19.08;33.43
4410;BME280;2218;51.408;7.208;2023-04-26T05:07:00;99987.44;;;19.09;33.67
4410;BME280;2218;51.408;7.208;2023-04-26T05:09:27;99984.78;;;19.09;33.30
4410;BME280;2218;51.408;7.208;2023-04-26T05:11:54;99990.94;;;19.09;33.35
4410;BME280;2218;51.408;7.208;2023-04-26T05:14:21;99987.44;;;19.09;33.46
4410;BME280;2218;51.408;7.208;2023-04-26T05:16:48;99996.19;;;19.09;33.64
4410;BME280;2218;51.408;7.208;2023-04-26T05:19:15;100002.22;;;19.11;33.41
4410;BME280;2218;51.408;7.208;2023-04-26T05:21:43;99995.25;;;19.10;33.51
4410;BME280;2218;51.408;7.208;2023-04-26T05:24:12;100002.09;;;19.13;33.37
4410;BME280;2218;51.408;7.208;2023-04-26T05:26:39;100007.91;;;19.18;33.51
4410;BME280;2218;51.408;7.208;2023-04-26T05:29:15;100007.63;;;19.23;33.43
4410;BME280;2218;51.408;7.208;2023-04-26T05:32:03;100016.00;;;19.29;33.07
4410;BME280;2218;51.408;7.208;2023-04-26T05:34:40;100009.50;;;19.35;33.28
4410;BME280;2218;51.408;7.208;2023-04-26T05:37:10;100016.03;;;19.42;33.22
4410;BME280;2218;51.408;7.208;2023-04-26T05:39:39;100013.94;;;19.47;33.40
4410;BME280;2218;51.408;7.208;2023-04-26T05:42:06;100013.66;;;19.52;33.15
4410;BME280;2218;51.408;7.208;2023-04-26T05:44:33;100012.41;;;19.57;33.07
4410;BME280;2218;51.408;7.208;2023-04-26T05:47:01;100021.63;;;19.65;33.05
4410;BME280;2218;51.408;7.208;2023-04-26T05:49:28;100016.78;;;19.71;33.22
4410;BME280;2218;51.408;7.208;2023-04-26T05:51:57;100019.97;;;19.76;33.16
4410;BME280;2218;51.408;7.208;2023-04-26T05:54:26;100026.75;;;19.80;32.84
4410;BME280;2218;51.408;7.208;2023-04-26T05:56:54;100022.97;;;19.84;32.97
4410;BME280;2218;51.408;7.208;2023-04-26T05:59:21;100020.09;;;19.87;33.05
4410;BME280;2218;51.408;7.208;2023-04-26T06:01:50;100021.88;;;19.87;32.88
4410;BME280;2218;51.408;7.208;2023-04-26T06:04:17;100031.41;;;19.90;33.34
4410;BME280;2218;51.408;7.208;2023-04-26T06:06:56;100022.97;;;19.97;32.53
4410;BME280;2218;51.408;7.208;2023-04-26T06:09:23;100025.94;;;20.05;32.59
4410;BME280;2218;51.408;7.208;2023-04-26T06:11:50;100030.78;;;20.11;32.53
4410;BME280;2218;51.408;7.208;2023-04-26T06:14:19;100029.66;;;20.16;32.23
4410;BME280;2218;51.408;7.208;2023-04-26T06:16:46;100029.34;;;20.20;32.11
4410;BME280;2218;51.408;7.208;2023-04-26T06:19:13;100036.09;;;20.24;32.16
4410;BME280;2218;51.408;7.208;2023-04-26T06:21:40;100032.28;;;20.28;32.25
4410;BME280;2218;51.408;7.208;2023-04-26T06:24:12;100038.09;;;20.33;32.21
4410;BME280;2218;51.408;7.208;2023-04-26T06:26:39;100039.56;;;20.37;32.06
4410;BME280;2218;51.408;7.208;2023-04-26T06:29:07;100041.16;;;20.40;32.10
4410;BME280;2218;51.408;7.208;2023-04-26T06:31:35;100048.78;;;20.45;32.20
4410;BME280;2218;51.408;7.208;2023-04-26T06:34:03;100045.94;;;20.48;32.14
4410;BME280;2218;51.408;7.208;2023-04-26T06:36:30;100044.88;;;20.50;32.12
4410;BME280;2218;51.408;7.208;2023-04-26T06:38:58;100045.72;;;20.51;32.08
4410;BME280;2218;51.408;7.208;2023-04-26T06:41:25;100041.19;;;20.53;31.87
4410;BME280;2218;51.408;7.208;2023-04-26T06:43:52;100048.19;;;20.54;31.84
4410;BME280;2218;51.408;7.208;2023-04-26T06:46:20;100056.81;;;20.56;31.97
4410;BME280;2218;51.408;7.208;2023-04-26T06:48:53;100051.53;;;20.56;31.80
4410;BME280;2218;51.408;7.208;2023-04-26T06:51:21;100062.81;;;20.58;31.66
4410;BME280;2218;51.408;7.208;2023-04-26T06:53:48;100067.19;;;20.59;31.76
4410;BME280;2218;51.408;7.208;2023-04-26T06:56:15;100057.47;;;20.59;31.75
4410;BME280;2218;51.408;7.208;2023-04-26T06:58:57;100049.44;;;20.61;31.67
4410;BME280;2218;51.408;7.208;2023-04-26T07:01:24;100051.34;;;20.59;31.89
4410;BME280;2218;51.408;7.208;2023-04-26T07:03:55;100040.53;;;20.62;31.77
4410;BME280;2218;51.408;7.208;2023-04-26T07:06:23;100038.88;;;20.61;31.83
4410;BME280;2218;51.408;7.208;2023-04-26T07:08:50;100041.38;;;20.62;31.76
4410;BME280;2218;51.408;7.208;2023-04-26T07:11:17;100039.50;;;20.64;31.81
4410;BME280;2218;51.408;7.208;2023-04-26T07:13:44;100040.22;;;20.67;31.77
4410;BME280;2218;51.408;7.208;2023-04-26T07:16:11;100036.75;;;20.66;31.79
4410;BME280;2218;51.408;7.208;2023-04-26T07:18:39;100037.78;;;20.63;31.92
4410;BME280;2218;51.408;7.208;2023-04-26T07:21:10;100038.66;;;20.64;32.01
4410;BME280;2218;51.408;7.208;2023-04-26T07:23:37;100038.75;;;20.62;31.83
4410;BME280;2218;51.408;7.208;2023-04-26T07:26:04;100041.38;;;20.62;31.90
4410;BME280;2218;51.408;7.208;2023-04-26T07:28:31;100035.25;;;20.62;31.79
4410;BME280;2218;51.408;7.208;2023-04-26T07:30:59;100042.22;;;20.63;31.71
4410;BME280;2218;51.408;7.208;2023-04-26T07:33:26;100047.50;;;20.63;31.75
4410;BME280;2218;51.408;7.208;2023-04-26T07:35:54;100045.72;;;20.63;31.88
4410;BME280;2218;51.408;7.208;2023-04-26T07:38:23;100040.53;;;20.62;31.42
4410;BME280;2218;51.408;7.208;2023-04-26T07:40:51;100045.81;;;20.62;31.42
4410;BME280;2218;51.408;7.208;2023-04-26T07:43:19;100046.78;;;20.61;31.44
4410;BME280;2218;51.408;7.208;2023-04-26T07:45:46;100042.34;;;20.61;31.40
4410;BME280;2218;51.408;7.208;2023-04-26T07:48:13;100047.63;;;20.61;31.48
4410;BME280;2218;51.408;7.208;2023-04-26T07:50:40;100045.81;;;20.62;31.44
4410;BME280;2218;51.408;7.208;2023-04-26T07:53:07;100045.81;;;20.62;31.71
4410;BME280;2218;51.408;7.208;2023-04-26T07:55:35;100036.09;;;20.62;31.62
4410;BME280;2218;51.408;7.208;2023-04-26T07:58:02;100043.94;;;20.64;31.94
4410;BME280;2218;51.408;7.208;2023-04-26T08:00:29;100038.66;;;20.64;31.67
4410;BME280;2218;51.408;7.208;2023-04-26T08:02:56;100042.22;;;20.63;31.73
4410;BME280;2218;51.408;7.208;2023-04-26T08:05:23;100037.19;;;20.60;31.71
4410;BME280;2218;51.408;7.208;2023-04-26T08:07:50;100033.78;;;20.58;31.88
4410;BME280;2218;51.408;7.208;2023-04-26T08:10:17;100039.28;;;20.55;32.05
4410;BME280;2218;51.408;7.208;2023-04-26T08:12:45;100043.09;;;20.51;32.16
4410;BME280;2218;51.408;7.208;2023-04-26T08:15:12;100037.81;;;20.51;32.24
4410;BME280;2218;51.408;7.208;2023-04-26T08:17:39;100040.66;;;20.48;31.95
4410;BME280;2218;51.408;7.208;2023-04-26T08:20:08;100038.00;;;20.48;32.45
4410;BME280;2218;51.408;7.208;2023-04-26T08:22:35;100038.84;;;20.48;32.28
4410;BME280;2218;51.408;7.208;2023-04-26T08:25:02;100036.34;;;20.47;32.48
4410;BME280;2218;51.408;7.208;2023-04-26T08:27:30;100031.06;;;20.47;31.96
4410;BME280;2218;51.408;7.208;2023-04-26T08:30:00;100038.09;;;20.46;32.54
4410;BME280;2218;51.408;7.208;2023-04-26T08:32:27;100035.56;;;20.45;32.58
4410;BME280;2218;51.408;7.208;2023-04-26T08:34:54;100040.09;;;20.43;32.47
4410;BME280;2218;51.408;7.208;2023-04-26T08:37:21;100045.38;;;20.43;32.60
4410;BME280;2218;51.408;7.208;2023-04-26T08:39:48;100044.53;;;20.42;32.64
4410;BME280;2218;51.408;7.208;2023-04-26T08:42:16;100046.44;;;20.40;32.63
4410;BME280;2218;51.408;7.208;2023-04-26T08:44:44;100048.25;;;20.39;32.68
4410;BME280;2218;51.408;7.208;2023-04-26T08:47:18;100045.81;;;20.36;32.84
4410;BME280;2218;51.408;7.208;2023-04-26T08:49:53;100043.28;;;20.35;32.65
4410;BME280;2218;51.408;7.208;2023-04-26T08:52:28;100033.75;;;20.32;33.25
4410;BME280;2218;51.408;7.208;2023-04-26T08:54:57;100031.13;;;20.32;33.09
4410;BME280;2218;51.408;7.208;2023-04-26T08:57:25;100036.41;;;20.32;32.97
4410;BME280;2218;51.408;7.208;2023-04-26T08:59:54;100037.34;;;20.31;32.91
4410;BME280;2218;51.408;7.208;2023-04-26T09:02:24;100047.06;;;20.31;33.11
4410;BME280;2218;51.408;7.208;2023-04-26T09:04:51;100046.22;;;20.30;33.19
4410;BME280;2218;51.408;7.208;2023-04-26T09:07:21;100046.34;;;20.29;33.08
4410;BME280;2218;51.408;7.208;2023-04-26T09:09:50;100043.78;;;20.27;33.00
4410;BME280;2218;51.408;7.208;2023-04-26T09:12:18;100044.75;;;20.26;33.17
4410;BME280;2218;51.408;7.208;2023-04-26T09:14:46;100035.16;;;20.25;33.23
4410;BME280;2218;51.408;7.208;2023-04-26T09:17:28;100037.78;;;20.25;33.18
4410;BME280;2218;51.408;7.208;2023-04-26T09:19:56;100036.09;;;20.24;33.33
4410;BME280;2218;51.408;7.208;2023-04-26T09:22:30;100039.66;;;20.23;33.37
4410;BME280;2218;51.408;7.208;2023-04-26T09:24:58;100044.94;;;20.23;33.30
4410;BME280;2218;51.408;7.208;2023-04-26T09:27:33;100044.09;;;20.23;33.24
4410;BME280;2218;51.408;7.208;2023-04-26T09:30:05;100037.97;;;20.22;33.42
4410;BME280;2218;51.408;7.208;2023-04-26T09:32:47;100044.94;;;20.23;33.27
4410;BME280;2218;51.408;7.208;2023-04-26T09:35:27;100043.25;;;20.22;33.18
4410;BME280;2218;51.408;7.208;2023-04-26T09:37:58;100039.88;;;20.20;33.40
4410;BME280;2218;51.408;7.208;2023-04-26T09:40:27;100042.59;;;20.19;33.25
4410;BME280;2218;51.408;7.208;2023-04-26T09:43:01;100042.84;;;20.16;33.34
4410;BME280;2218;51.408;7.208;2023-04-26T09:45:30;100042.06;;;20.13;33.25
4410;BME280;2218;51.408;7.208;2023-04-26T09:48:20;100043.88;;;20.13;33.13
4410;BME280;2218;51.408;7.208;2023-04-26T09:50:50;100046.63;;;20.11;33.29
4410;BME280;2218;51.408;7.208;2023-04-26T09:53:30;100050.22;;;20.10;33.33
4410;BME280;2218;51.408;7.208;2023-04-26T09:56:07;100042.41;;;20.09;33.32
4410;BME280;2218;51.408;7.208;2023-04-26T09:58:36;100054.53;;;20.11;33.25
4410;BME280;2218;51.408;7.208;2023-04-26T10:01:06;100045.59;;;20.14;32.79
4410;BME280;2218;51.408;7.208;2023-04-26T10:03:36;100045.59;;;20.14;32.11
4410;BME280;2218;51.408;7.208;2023-04-26T10:06:03;100038.53;;;20.14;31.66
4410;BME280;2218;51.408;7.208;2023-04-26T10:08:30;100037.56;;;20.16;31.53
4410;BME280;2218;51.408;7.208;2023-04-26T10:10:59;100040.84;;;20.19;31.21
4410;BME280;2218;51.408;7.208;2023-04-26T10:13:26;100035.44;;;20.21;31.09
4410;BME280;2218;51.408;7.208;2023-04-26T10:15:55;100035.34;;;20.22;31.02
4410;BME280;2218;51.408;7.208;2023-04-26T10:18:22;100025.53;;;20.24;30.59
4410;BME280;2218;51.408;7.208;2023-04-26T10:20:54;100030.81;;;20.24;30.41
4410;BME280;2218;51.408;7.208;2023-04-26T10:23:23;100024.59;;;20.25;30.62
4410;BME280;2218;51.408;7.208;2023-04-26T10:25:52;100013.91;;;20.27;30.55
4410;BME280;2218;51.408;7.208;2023-04-26T10:28:54;100021.72;;;20.28;30.47
4410;BME280;2218;51.408;7.208;2023-04-26T10:31:22;100016.44;;;20.28;29.71
4410;BME280;2218;51.408;7.208;2023-04-26T10:34:19;100009.47;;;20.27;29.57
4410;BME280;2218;51.408;7.208;2023-04-26T10:37:10;100019.19;;;20.27;29.75
4410;BME280;2218;51.408;7.208;2023-04-26T10:39:38;100012.97;;;20.28;29.77
4410;BME280;2218;51.408;7.208;2023-04-26T10:42:23;100011.38;;;20.25;29.89
4410;BME280;2218;51.408;7.208;2023-04-26T10:44:52;100007.91;;;20.25;30.06
4410;BME280;2218;51.408;7.208;2023-04-26T10:47:26;100008.00;;;20.23;30.13
4410;BME280;2218;51.408;7.208;2023-04-26T10:50:05;99999.16;;;20.24;30.24
4410;BME280;2218;51.408;7.208;2023-04-26T10:52:35;100006.84;;;20.27;30.27
4410;BME280;2218;51.408;7.208;2023-04-26T10:55:03;100015.00;;;20.24;30.24
4410;BME280;2218;51.408;7.208;2023-04-26T10:57:49;100011.59;;;20.22;30.12
4410;BME280;2218;51.408;7.208;2023-04-26T11:00:29;100019.63;;;20.21;30.32
4410;BME280;2218;51.408;7.208;2023-04-26T11:03:09;100016.13;;;20.20;30.27
4410;BME280;2218;51.408;7.208;2023-04-26T11:05:53;100015.38;;;20.18;30.54
4410;BME280;2218;51.408;7.208;2023-04-26T11:08:25;100012.75;;;20.18;30.76
4410;BME280;2218;51.408;7.208;2023-04-26T11:11:06;100009.38;;;20.16;30.70
4410;BME280;2218;51.408;7.208;2023-04-26T11:13:37;100006.75;;;20.16;30.66
4410;BME280;2218;51.408;7.208;2023-04-26T11:16:07;100012.00;;;20.16;30.70
4410;BME280;2218;51.408;7.208;2023-04-26T11:18:36;100016.44;;;20.16;30.90
4410;BME280;2218;51.408;7.208;2023-04-26T11:21:06;100010.34;;;20.15;30.98
4410;BME280;2218;51.408;7.208;2023-04-26T11:23:35;100005.06;;;20.15;30.73
4410;BME280;2218;51.408;7.208;2023-04-26T11:26:04;100003.38;;;20.14;31.13
4410;BME280;2218;51.408;7.208;2023-04-26T11:28:35;100001.66;;;20.13;31.14
4410;BME280;2218;51.408;7.208;2023-04-26T11:31:04;100001.66;;;20.13;30.95
4410;BME280;2218;51.408;7.208;2023-04-26T11:33:32;99996.38;;;20.13;31.10
4410;BME280;2218;51.408;7.208;2023-04-26T11:36:01;99999.03;;;20.13;31.29
4410;BME280;2218;51.408;7.208;2023-04-26T11:38:29;99994.69;;;20.12;31.15
4410;BME280;2218;51.408;7.208;2023-04-26T11:40:58;100005.13;;;20.13;31.28
4410;BME280;2218;51.408;7.208;2023-04-26T11:43:34;99999.13;;;20.11;31.03
4410;BME280;2218;51.408;7.208;2023-04-26T11:46:03;99993.84;;;20.11;31.37
4410;BME280;2218;51.408;7.208;2023-04-26T11:48:34;99995.66;;;20.11;31.07
4410;BME280;2218;51.408;7.208;2023-04-26T11:51:03;99995.66;;;20.11;31.39
4410;BME280;2218;51.408;7.208;2023-04-26T11:53:35;99993.97;;;20.10;31.45
4410;BME280;2218;51.408;7.208;2023-04-26T11:56:13;99994.06;;;20.08;31.54
4410;BME280;2218;51.408;7.208;2023-04-26T11:58:44;99998.50;;;20.08;31.46
4410;BME280;2218;51.408;7.208;2023-04-26T12:01:20;100000.41;;;20.06;31.41
4410;BME280;2218;51.408;7.208;2023-04-26T12:03:50;99991.66;;;20.05;31.67
4410;BME280;2218;51.408;7.208;2023-04-26T12:06:19;99999.56;;;20.05;31.60
4410;BME280;2218;51.408;7.208;2023-04-26T12:08:49;100004.84;;;20.05;31.68
4410;BME280;2218;51.408;7.208;2023-04-26T12:11:18;99983.81;;;20.04;31.72
4410;BME280;2218;51.408;7.208;2023-04-26T12:13:46;99996.16;;;20.03;31.73
4410;BME280;2218;51.408;7.208;2023-04-26T12:16:14;99997.88;;;20.04;31.77
4410;BME280;2218;51.408;7.208;2023-04-26T12:18:49;99998.78;;;20.03;31.82
4410;BME280;2218;51.408;7.208;2023-04-26T12:21:17;100000.59;;;20.03;31.82
4410;BME280;2218;51.408;7.208;2023-04-26T12:23:45;100005.88;;;20.03;31.79
4410;BME280;2218;51.408;7.208;2023-04-26T12:26:14;100000.72;;;20.01;31.84
4410;BME280;2218;51.408;7.208;2023-04-26T12:28:42;99998.91;;;20.02;31.88
4410;BME280;2218;51.408;7.208;2023-04-26T12:31:10;100000.59;;;20.03;31.64
4410;BME280;2218;51.408;7.208;2023-04-26T12:33:37;100005.88;;;20.03;31.71
4410;BME280;2218;51.408;7.208;2023-04-26T12:36:07;100004.19;;;20.02;31.89
4410;BME280;2218;51.408;7.208;2023-04-26T12:38:34;99998.06;;;20.01;31.74
4410;BME280;2218;51.408;7.208;2023-04-26T12:41:02;99997.22;;;20.01;31.65
4410;BME280;2218;51.408;7.208;2023-04-26T12:43:29;99995.53;;;20.00;31.86
4410;BME280;2218;51.408;7.208;2023-04-26T12:45:58;99999.88;;;20.01;31.89
4410;BME280;2218;51.408;7.208;2023-04-26T12:48:25;99997.22;;;20.01;31.74
4410;BME280;2218;51.408;7.208;2023-04-26T12:50:53;100001.66;;;20.00;31.90
4410;BME280;2218;51.408;7.208;2023-04-26T12:53:21;99999.88;;;20.01;31.77
4410;BME280;2218;51.408;7.208;2023-04-26T12:55:48;99991.13;;;20.00;31.83
4410;BME280;2218;51.408;7.208;2023-04-26T12:58:15;99999.09;;;19.99;31.87
4410;BME280;2218;51.408;7.208;2023-04-26T13:00:42;99994.69;;;19.99;32.08
4410;BME280;2218;51.408;7.208;2023-04-26T13:03:10;99985.00;;;20.00;32.15
4410;BME280;2218;51.408;7.208;2023-04-26T13:05:39;100000.81;;;20.00;31.77
4410;BME280;2218;51.408;7.208;2023-04-26T13:08:08;99985.84;;;20.00;32.08
4410;BME280;2218;51.408;7.208;2023-04-26T13:10:34;99994.69;;;19.99;32.22
4410;BME280;2218;51.408;7.208;2023-04-26T13:13:02;99999.97;;;19.99;32.14
4410;BME280;2218;51.408;7.208;2023-04-26T13:15:30;99998.19;;;20.00;32.29
4410;BME280;2218;51.408;7.208;2023-04-26T13:17:57;100001.75;;;19.99;32.31
4410;BME280;2218;51.408;7.208;2023-04-26T13:20:25;99989.31;;;20.01;32.12
4410;BME280;2218;51.408;7.208;2023-04-26T13:22:53;99990.88;;;20.03;32.17
4410;BME280;2218;51.408;7.208;2023-04-26T13:25:21;99998.59;;;20.06;32.06
4410;BME280;2218;51.408;7.208;2023-04-26T13:27:49;99994.16;;;20.07;31.81